Weather observations for the past three days for
Chehalis-Centralia Airport
Metric (Imperial)
Date Time (pdt) Wind (kph) Vis. (km) Weather Sky Cond. Temperature (ºC) Relative Humidity Wind Chill (°C) Heat Index (°C) Pressure Precipitation (cm)
Air Dwpt 6 hour altimeter (cm) sea level (mb) 1 hr 3 hr 6 hr
Max. Min.
08 05:55 Calm 16.09 Fair CLR 8 8 100% 76.45 0.0
08 05:35 Calm 16.09 Fair CLR 8 8 100% 76.43 0.0
08 05:15 Calm 16.09 Mostly Cloudy SCT022 BKN028 BKN033 8 8 100% 76.43 0.0
08 04:55 Calm 16.09 Mostly Cloudy BKN022 BKN027 BKN036 8 8 100% 76.43 0.0
08 04:35 Calm 16.09 A Few Clouds FEW036 8 8 100% 76.4 0.0
08 04:15 Calm 16.09 Fair CLR 8 8 100% 76.38 0.0
08 03:55 Calm 16.09 Fair CLR 8 8 100% 76.38 0.0
08 03:35 Calm 16.09 Fair CLR 8 8 100% 76.35 0.0
08 03:15 Calm 16.09 Fair CLR 8 8 100% 76.35 0.0
08 02:55 Calm 16.09 Fair CLR 8 8 100% 76.33 0.0
08 02:35 Calm 16.09 Fair CLR 8 8 100% 76.33 0.0
08 02:15 Calm 16.09 Fair CLR 9 9 100% 76.33 0.0
08 01:55 Calm 16.09 Fair CLR 9 9 100% 76.33 0.0
08 01:35 Calm 16.09 NULL NULL 9 9 100% 76.33 0.0
08 01:15 Calm 16.09 NULL NULL 9 9 100% 76.3 0.0
08 00:55 Calm 16.09 Fair CLR 9 9 100% 76.3 0.0
08 00:35 Calm 16.09 Fair CLR 9 9 100% 76.3 0.0
08 00:15 Calm 16.09 Fair CLR 10 10 100% 76.3 0.0
07 23:55 Calm 16.09 Fair CLR 10 10 100% 76.3 0.0
07 23:35 SW 6 16.09 Fair CLR 10 10 100% 76.3 0.0
07 23:15 Calm 16.09 Fair CLR 10 10 100% 76.3 0.0
07 22:55 SW 7 16.09 Fair CLR 11 10 94% 76.3 0.0
07 22:35 Calm 16.09 NULL NULL 11 10 94% 76.3 0.0
07 22:15 Calm 16.09 Fair CLR 12 10 88% 76.3 0.0
07 21:55 Calm 16.09 Fair CLR 12 10 88% 76.3 0.0
07 21:35 Calm 16.09 Fair CLR 13 10 82% 76.3 0.0
07 21:15 W 6 16.09 Fair CLR 14 10 77% 76.3 0.0
07 20:55 Calm 16.09 Fair CLR 15 10 72% 76.28 0.0
07 20:35 Calm 16.09 Fair CLR 15 9 68% 76.28 0.0
07 20:15 Calm 16.09 Fair CLR 16 9 63% 76.25 0.0
07 19:55 Calm 16.09 Fair CLR 17 9 60% 76.25 0.0
07 19:35 NW 9 16.09 Fair CLR 18 9 56% 76.25 0.0
07 19:15 Vrbl 7 16.09 Fair CLR 19 8 49% 76.25 0.0
07 18:55 Calm 16.09 Fair CLR 19 7 46% 76.25 0.0
07 18:35 Calm 16.09 Fair CLR 19 6 43% 76.25 0.0
07 18:15 NE 7 16.09 Fair CLR 19 6 43% 76.28 0.0
07 17:55 Calm 16.09 Fair CLR 19 6 43% 76.28 0.0
07 17:35 Vrbl 7 16.09 Fair CLR 19 6 43% 76.3 0.0
07 17:15 NE 11 16.09 Fair CLR 19 6 43% 76.3 0.0
07 16:55 Vrbl 9 G 19 16.09 Fair CLR 19 5 40% 76.3 0.0
07 16:35 NE 9 16.09 Fair CLR 18 5 43% 76.33 0.0
07 16:15 NE 11 16.09 Fair CLR 18 5 43% 76.35 0.0
07 15:55 Vrbl 9 16.09 Fair CLR 17 4 42% 76.38 0.0
07 15:35 NE 7 16.09 Fair CLR 17 5 45% 76.4 0.0
07 15:15 NE 9 16.09 Fair CLR 17 5 45% 76.43 0.0
07 14:55 Vrbl 6 16.09 Fair CLR 16 5 48% 76.43 0.0
07 14:35 Calm 16.09 Fair CLR 16 7 55% 76.45 0.0
07 14:15 NE 9 16.09 Fair CLR 16 6 52% 76.45 0.0
07 13:35 Calm 16.09 Fair CLR 14 6 59% 76.5 0.0
07 13:15 Vrbl 7 16.09 Fair CLR 14 7 63% 76.53 0.0
07 12:55 Calm 16.09 Fair CLR 14 7 63% 76.53 0.0
07 12:35 Vrbl 7 16.09 Fair CLR 14 6 59% 76.56 0.0
07 12:15 Calm 16.09 A Few Clouds FEW033 14 6 59% 76.56 0.0
07 11:55 Calm 16.09 Mostly Cloudy BKN033 13 6 63% 76.56 0.0
07 11:35 Calm 16.09 Overcast OVC032 12 6 67% 76.58 0.0
07 11:15 Calm 16.09 Overcast OVC033 12 7 72% 76.58 0.0
07 10:55 Calm 16.09 Overcast OVC034 13 7 67% 76.58 0.0
07 10:35 Calm 16.09 Overcast OVC033 12 7 72% 76.58 0.0
07 10:15 Calm 16.09 Overcast OVC031 11 7 77% 76.58 0.0
07 09:55 Calm 16.09 Overcast OVC031 12 7 72% 76.61 0.0
07 09:35 Calm 16.09 Overcast BKN028 OVC035 11 7 77% 76.61 0.0
07 09:15 Calm 16.09 Overcast OVC035 11 7 77% 76.61 0.0
07 08:55 Calm 16.09 Overcast OVC036 11 8 82% 76.61 0.0
07 08:35 Calm 16.09 Overcast SCT027 OVC036 11 7 77% 76.61 0.0
07 08:15 Calm 16.09 Overcast OVC026 10 7 82% 76.61 0.0
07 07:55 SW 6 16.09 Overcast OVC026 10 7 82% 76.61 0.0
07 07:35 Calm 16.09 Overcast OVC027 10 7 82% 76.61 0.0
07 07:15 Calm 16.09 Overcast OVC027 10 8 88% 76.61 0.0
07 06:55 Calm 16.09 Overcast OVC027 10 8 88% 76.58 0.0
07 06:35 Calm 16.09 Overcast OVC027 9 9 100% 76.58 0.0
07 06:15 Calm 16.09 Overcast OVC028 9 9 100% 76.58 0.0
07 05:55 Calm 16.09 Overcast OVC029 8 8 100% 76.58 0.0
07 05:35 Calm 16.09 Overcast OVC030 8 8 100% 76.58 0.0
07 05:15 Calm 16.09 Overcast BKN029 OVC034 8 8 100% 76.61 0.0
07 04:55 Calm 16.09 Overcast OVC033 8 8 100% 76.61 0.0
07 04:35 Calm 16.09 Overcast OVC032 9 9 100% 76.61 0.0
07 04:15 Calm 16.09 Overcast OVC034 9 9 100% 76.63 0.0
07 03:55 Calm 16.09 Mostly Cloudy BKN033 9 9 100% 76.63 0.0
07 03:35 Calm 16.09 Mostly Cloudy BKN034 9 9 100% 76.63 0.0
07 03:15 Calm 16.09 Mostly Cloudy BKN032 9 9 100% 76.63 0.0
07 02:55 Calm 16.09 NULL NULL 9 9 100% 76.63 0.0
07 02:35 SW 6 16.09 Overcast BKN031 OVC037 9 9 100% 76.63 0.0
07 02:15 Calm 16.09 Overcast BKN029 OVC036 10 9 94% 76.66 0.0
07 01:55 Calm 16.09 Overcast FEW028 OVC038 10 9 94% 76.66 0.0
07 01:35 Calm 16.09 Overcast OVC038 10 9 94% 76.66 0.0
07 01:15 Calm 16.09 Overcast OVC036 10 8 88% 76.66 0.0
07 00:55 Calm 16.09 Overcast OVC036 10 8 88% 76.66 0.0
07 00:35 Calm 16.09 Overcast OVC035 10 8 88% 76.66 0.0
07 00:15 Calm 16.09 Overcast OVC031 11 9 88% 76.66 0.0
06 23:55 Vrbl 6 16.09 Overcast OVC033 11 9 88% 76.66 0.0
06 23:35 Calm 16.09 Overcast OVC033 11 10 94% 76.66 0.0
06 23:15 W 6 16.09 Overcast OVC031 12 10 88% 76.66 0.0
06 22:55 Calm 16.09 Overcast OVC033 12 11 94% 76.66 0.0
06 22:35 Calm 16.09 Overcast OVC035 12 11 94% 76.66 0.0
06 22:15 Vrbl 7 16.09 Overcast OVC034 12 11 94% 76.66 0.0
06 21:55 Vrbl 7 16.09 Overcast OVC034 12 11 94% 76.66 0.0
06 21:35 Calm 16.09 Overcast OVC031 12 11 94% 76.66 0.0
06 21:15 SW 7 16.09 Overcast OVC027 13 11 88% 76.66 0.0
06 20:55 Vrbl 7 16.09 Overcast OVC028 13 11 88% 76.63 0.0
06 20:35 Vrbl 7 16.09 Overcast OVC028 13 11 88% 76.63 0.0
06 20:15 W 7 16.09 Overcast OVC030 13 11 88% 76.61 0.0
06 19:55 Vrbl 11 16.09 Overcast OVC029 13 11 88% 76.61 0.0
06 19:35 Vrbl 9 16.09 Overcast OVC028 13 11 88% 76.58 0.0
06 19:15 Vrbl 9 G 19 16.09 Overcast OVC027 13 11 88% 76.61 0.0
06 18:55 Vrbl 11 16.09 Overcast OVC027 14 11 82% 76.61 0.0
06 18:35 W 13 G 24 16.09 Mostly Cloudy BKN031 14 10 77% 76.61 0.0
06 18:15 Vrbl 9 G 19 16.09 Mostly Cloudy BKN033 14 10 77% 76.58 0.0
06 17:55 Vrbl 9 G 20 16.09 Overcast BKN029 OVC034 14 11 82% 76.58 0.0
06 17:35 Vrbl 6 G 20 16.09 Overcast SCT026 OVC032 15 11 77% 76.61 0.0
06 17:15 W 13 G 22 16.09 Partly Cloudy SCT032 16 10 68% 76.61 0.0
06 16:55 NW 13 G 30 16.09 Fair CLR 15 10 72% 76.61 0.0
06 16:35 Vrbl 7 G 30 16.09 Fair CLR 16 10 68% 76.58 0.0
06 16:15 W 11 G 22 16.09 Fair CLR 16 11 72% 76.58 0.0
06 15:55 W 13 G 26 16.09 Fair CLR 16 11 72% 76.58 0.0
06 15:35 Vrbl 7 G 26 16.09 Partly Cloudy SCT037 16 11 72% 76.61 0.0
06 15:15 W 13 G 26 16.09 Overcast OVC036 17 11 68% 76.61 0.0
06 14:55 NW 19 G 28 16.09 Overcast OVC037 17 11 68% 76.61 0.0
06 14:35 Vrbl 9 G 19 16.09 Overcast OVC036 16 10 68% 76.61 0.0
06 14:15 Vrbl 7 16.09 Overcast OVC036 17 10 64% 76.58 0.0
06 13:55 SW 11 14.48 Overcast OVC035 16 10 68% 76.61 0.0
06 13:35 Vrbl 9 16.09 Overcast OVC034 16 10 68% 76.61 0.0
06 13:15 SW 13 16.09 Overcast OVC033 16 10 68% 76.58 0.0
06 12:55 Vrbl 7 G 20 16.09 Overcast OVC032 15 11 77% 76.58 0.0
06 12:35 Vrbl 7 16.09 Overcast OVC030 15 11 77% 76.58 0.0
06 12:15 Calm 16.09 Overcast OVC028 15 10 72% 76.61 0.0
06 11:55 Vrbl 7 16.09 Overcast OVC027 14 10 77% 76.61 0.0
06 11:35 W 6 16.09 Overcast OVC027 14 10 77% 76.58 0.0
06 11:15 Vrbl 7 16.09 Overcast OVC025 14 10 77% 76.58 0.0
06 10:55 Calm 16.09 Overcast OVC022 13 11 88% 76.58 0.0
06 10:35 Calm 16.09 Overcast OVC020 13 12 94% 76.58 0.0
06 10:15 Calm 16.09 Overcast OVC020 12 12 100% 76.58 0.0
06 09:55 Calm 8.05 Fog/Mist OVC017 12 12 100% 76.58 0.0
06 09:35 S 6 9.66 Fog/Mist OVC016 12 12 100% 76.58 0.0
06 09:15 SW 6 14.48 Overcast OVC015 12 12 100% 76.56 0.0
06 08:55 Vrbl 6 16.09 Overcast OVC015 12 12 100% 76.53 0.0
06 08:35 Calm 11.27 Mostly Cloudy BKN016 12 12 100% 76.53 0.0
06 08:15 Calm 14.48 Overcast OVC016 12 12 100% 76.53 0.0
06 07:55 Calm 16.09 Overcast OVC014 12 12 100% 76.53 0.0
06 07:35 Calm 16.09 Overcast OVC014 11 11 100% 76.5 0.0
06 07:15 SW 7 16.09 Overcast OVC015 12 12 100% 76.5 0.0
06 06:55 Calm 16.09 Overcast OVC015 11 11 100% 76.5 0.0
06 06:35 Calm 16.09 Overcast BKN016 OVC020 11 11 100% 76.5 0.0
06 06:15 Vrbl 6 16.09 Overcast BKN014 OVC020 12 12 100% 76.5 0.0
06 05:55 Calm 16.09 Overcast OVC014 12 12 100% 76.48 0.0
06 05:35 Calm 16.09 Overcast OVC016 12 11 94% 76.48 0.0
06 05:15 Calm 16.09 Overcast OVC017 12 11 94% 76.45 0.0
06 04:55 Calm 16.09 Overcast OVC017 12 11 94% 76.45 0.0
06 04:35 Calm 16.09 Overcast OVC017 12 11 94% 76.43 0.0
06 04:15 Calm 16.09 Overcast OVC016 12 11 94% 76.43 0.0
06 03:55 Calm 16.09 Overcast OVC017 12 11 94% 76.43 0.0
06 03:35 Calm 16.09 Overcast OVC017 12 12 100% 76.43 0.0
06 03:15 Calm 16.09 Overcast OVC016 12 12 100% 76.4 0.0
06 02:55 Calm 16.09 Overcast OVC016 12 12 100% 76.4 0.0
06 02:35 Vrbl 7 16.09 Overcast OVC017 12 12 100% 76.4 0.0
06 02:15 Calm 16.09 Overcast OVC018 12 12 100% 76.4 0.0
06 01:55 Calm 16.09 Overcast OVC018 13 12 94% 76.38 0.0
06 01:35 Calm 16.09 Overcast OVC019 13 12 94% 76.38 0.0
06 01:15 W 7 16.09 Overcast OVC020 13 11 88% 76.35 0.0
06 00:55 Calm 16.09 Overcast OVC021 13 12 94% 76.35 0.0
06 00:35 Calm 16.09 Overcast OVC022 13 12 94% 76.33 0.0
06 00:15 Calm 16.09 Overcast OVC022 13 12 94% 76.33 0.0
05 23:55 Calm 16.09 Overcast OVC023 13 12 94% 76.3 0.0
05 22:55 Calm 16.09 Overcast OVC024 13 13 100% 76.3 0.0
05 22:35 Calm 16.09 Overcast BKN024 BKN030 OVC035 13 13 100% 76.3 0.0
05 22:15 Calm 16.09 Mostly Cloudy BKN032 BKN039 13 13 100% 76.28 0.0
05 21:55 Calm 16.09 Partly Cloudy SCT032 SCT039 13 13 100% 76.28 0.0
05 21:35 Calm 16.09 Fair CLR 13 13 100% 76.28 0.0
05 21:15 Calm 16.09 Fair CLR 13 13 100% 76.25 0.0
05 20:55 Calm 16.09 Fair CLR 14 12 88% 76.23 0.0
05 20:35 Vrbl 6 16.09 Fair CLR 15 12 82% 76.2 0.0
05 20:15 Calm 16.09 Fair CLR 15 13 88% 76.2 0.0
05 19:55 NW 7 16.09 Fair CLR 16 12 77% 76.17 0.0
05 19:35 N 11 16.09 Fair CLR 16 12 77% 76.17 0.0
05 19:15 NW 13 G 24 16.09 A Few Clouds FEW031 17 13 77% 76.17 0.0
05 18:55 Calm 16.09 A Few Clouds FEW031 17 13 77% 76.15 0.0
05 18:35 Vrbl 7 16.09 Partly Cloudy SCT031 18 13 73% 76.15 0.0
05 18:15 Vrbl 11 16.09 Overcast OVC032 18 13 73% 76.15 0.0
05 17:55 NE 11 16.09 Mostly Cloudy BKN032 18 13 73% 76.15 0.0
05 17:35 Vrbl 9 G 19 16.09 Partly Cloudy SCT032 18 13 73% 76.15 0.0
05 17:15 Vrbl 9 16.09 Mostly Cloudy BKN032 18 13 73% 76.17 0.0
05 16:55 NE 9 16.09 Overcast OVC031 18 13 73% 76.17 0.0
05 16:35 NE 9 16.09 Overcast OVC029 17 13 77% 76.2 0.0
05 16:15 NE 7 16.09 Overcast OVC029 17 13 77% 76.2 0.0
05 15:55 NE 7 16.09 Overcast OVC028 17 13 77% 76.23 0.0
05 15:35 Calm 16.09 Overcast OVC028 17 12 73% 76.23 0.0
05 15:15 Calm 16.09 Overcast OVC028 17 12 73% 76.25 0.0
05 14:55 Calm 14.48 Overcast OVC027 17 12 73% 76.25 0.0
05 14:35 Vrbl 7 16.09 Overcast OVC026 16 12 77% 76.25 0.0
05 14:15 S 7 16.09 Overcast OVC025 16 12 77% 76.28 0.0
05 13:55 SE 7 16.09 Overcast OVC024 16 12 77% 76.28 0.0
05 13:35 Calm 16.09 Overcast OVC024 15 12 82% 76.28 0.0
05 13:15 Vrbl 6 16.09 Overcast OVC024 15 12 82% 76.28 0.0
05 12:55 Vrbl 6 16.09 Overcast OVC024 15 12 82% 76.28 0.0
05 12:35 SW 7 16.09 Overcast OVC024 15 12 82% 76.28 0.0
05 12:15 SW 7 16.09 Overcast OVC023 15 12 82% 76.28 0.0
05 11:55 Calm 16.09 Overcast OVC023 15 12 82% 76.28 0.0
05 11:35 W 7 16.09 Overcast OVC022 15 11 77% 76.28 0.0
05 11:15 SW 9 16.09 Overcast OVC022 14 12 88% 76.28 0.0
05 10:55 Calm 16.09 Overcast OVC022 14 12 88% 76.28 0.0
05 10:35 Calm 16.09 Overcast OVC022 14 11 82% 76.25 0.0
05 10:15 Calm 16.09 Overcast OVC022 14 11 82% 76.25 0.0
05 09:55 Calm 16.09 Overcast OVC023 14 12 88% 76.25 0.0
05 09:35 Calm 16.09 Overcast OVC023 14 11 82% 76.23 0.0
05 09:15 Calm 16.09 Overcast OVC025 14 12 88% 76.23 0.0
05 08:55 SW 6 16.09 Overcast OVC023 14 11 82% 76.23 0.0
05 08:35 Vrbl 6 16.09 Overcast OVC020 13 11 88% 76.23 0.0
05 08:15 W 6 16.09 Overcast OVC020 13 11 88% 76.2 0.0
05 07:55 Calm 16.09 Overcast OVC019 13 12 94% 76.2 0.0
05 07:35 SW 6 16.09 Overcast OVC019 13 12 94% 76.17 0.0
05 07:15 Calm 16.09 Overcast OVC020 13 12 94% 76.17 0.0
05 06:55 SW 6 16.09 Overcast OVC021 13 12 94% 76.15 0.0
05 06:35 Calm 16.09 Overcast OVC021 13 12 94% 76.15 0.0
05 06:15 Calm 16.09 Overcast OVC023 13 12 94% 76.12 0.0
05 05:55 Calm 16.09 Overcast OVC023 13 12 94% 76.12 0.0
Date Time (pdt) Wind (kph) Vis. (km) Weather Sky Cond. Air Dwpt Max. Min. Relative Humidity Wind Chill (°C) Heat Index (°C) altimeter (cm) sea level (mb) 1 hr 3 hr 6 hr
6 hour
Temperature (ºC) Pressure Precipitation (cm)